Time,TemperatureF,DewpointF,PressureIn,WindDirection,WindDirectionDegrees,WindSpeedMPH,WindSpeedGustMPH,Humidity,HourlyPrecipIn,Conditions,Clouds,dailyrainin,SoftwareType,DateUTC
2013-01-02 00:00:00,28.2,15.4,29.95,North,0,12.6,12.6,58,0.00,,---,0.00,VWS V14.01,2013-01-02 05:00:00,
2013-01-02 00:01:00,28.8,15.8,29.96,North,359,9.3,10.6,58,0.00,,---,0.00,VWS V14.01,2013-01-02 05:01:00,
2013-01-02 00:03:00,26.6,16.2,30.10,WSW,257,1.3,1.9,64,0.00,,---,0.00,VWS V14.01,2013-01-02 05:03:00,
2013-01-02 00:06:00,28.8,15.9,29.95,NNW,339,8.0,9.6,58,0.00,,---,0.00,VWS V14.01,2013-01-02 05:06:00,
2013-01-02 00:09:00,27.1,12.9,29.93,NNW,338,20.1,21.2,54,0.00,,---,0.00,VWS V14.01,2013-01-02 05:09:00,
2013-01-02 00:11:00,27.8,14.8,29.96,NNW,347,8.1,8.9,58,0.00,,---,0.00,VWS V14.01,2013-01-02 05:11:00,
2013-01-02 00:16:00,28.2,15.0,29.95,NE,34,10.9,12.0,57,0.00,,---,0.00,VWS V14.01,2013-01-02 05:16:00,
2013-01-02 00:21:00,27.6,14.4,29.94,North,354,9.0,10.5,57,0.00,,---,0.00,VWS V14.01,2013-01-02 05:21:00,
2013-01-02 00:26:00,27.9,14.1,29.95,NNW,332,11.0,13.4,56,0.00,,---,0.00,VWS V14.01,2013-01-02 05:26:00,
2013-01-02 00:31:00,27.9,13.2,29.95,NNW,340,17.5,19.2,54,0.00,,---,0.00,VWS V14.01,2013-01-02 05:31:00,
2013-01-02 00:36:00,28.2,13.5,29.95,NW,322,9.6,11.6,54,0.00,,---,0.00,VWS V14.01,2013-01-02 05:36:00,
2013-01-02 00:41:00,27.8,13.4,29.95,NNW,340,8.5,8.8,54,0.00,,---,0.00,VWS V14.01,2013-01-02 05:41:00,
2013-01-02 00:46:00,27.6,13.1,29.95,NNW,329,12.7,15.0,54,0.00,,---,0.00,VWS V14.01,2013-01-02 05:46:00,
2013-01-02 00:51:00,27.3,12.6,29.94,NNE,13,10.1,12.9,53,0.00,,---,0.00,VWS V14.01,2013-01-02 05:51:00,
2013-01-02 00:56:00,27.2,12.6,29.94,North,359,15.0,15.6,54,0.00,,---,0.00,VWS V14.01,2013-01-02 05:56:00,
2013-01-02 01:01:00,27.4,12.8,29.93,NNW,336,15.2,21.6,54,0.00,,---,0.00,VWS V14.01,2013-01-02 06:01:00,
2013-01-02 01:06:00,26.9,12.5,29.93,NW,305,17.2,17.2,54,0.00,,---,0.00,VWS V14.01,2013-01-02 06:06:00,
2013-01-02 01:11:00,27.3,12.9,29.93,East,89,17.6,17.6,54,0.00,,---,0.00,VWS V14.01,2013-01-02 06:11:00,
2013-01-02 01:16:00,27.1,12.9,29.93,NNW,330,14.7,14.7,55,0.00,,---,0.00,VWS V14.01,2013-01-02 06:16:00,
2013-01-02 01:21:00,26.8,12.6,29.93,North,8,15.1,16.6,54,0.00,,---,0.00,VWS V14.01,2013-01-02 06:21:00,
2013-01-02 01:26:00,26.9,12.7,29.94,North,0,17.1,18.3,55,0.00,,---,0.00,VWS V14.01,2013-01-02 06:26:00,
2013-01-02 01:31:00,26.6,13.0,29.94,North,10,12.9,13.9,56,0.00,,---,0.00,VWS V14.01,2013-01-02 06:31:00,
2013-01-02 01:36:00,26.4,12.6,29.93,NE,41,17.6,17.6,55,0.00,,---,0.00,VWS V14.01,2013-01-02 06:36:00,
2013-01-02 01:41:00,27.0,13.2,29.94,North,359,2.4,2.4,55,0.00,,---,0.00,VWS V14.01,2013-01-02 06:41:00,
2013-01-02 01:46:00,27.2,13.6,29.94,NNE,17,8.0,8.3,56,0.00,,---,0.00,VWS V14.01,2013-01-02 06:46:00,
2013-01-02 01:51:00,26.6,13.1,29.94,North,352,12.8,14.4,56,33.69,,---,0.00,VWS V14.01,2013-01-02 06:51:00,
2013-01-02 01:56:00,26.5,13.5,29.95,North,359,0.0,0.4,57,0.00,,---,0.00,VWS V14.01,2013-01-02 06:56:00,
2013-01-02 02:01:00,26.4,13.1,29.95,NNW,343,10.4,10.6,57,0.00,,---,0.00,VWS V14.01,2013-01-02 07:01:00,
2013-01-02 02:06:00,26.4,13.1,29.95,North,8,9.3,9.4,57,0.00,,---,0.00,VWS V14.01,2013-01-02 07:06:00,
2013-01-02 02:11:00,26.2,12.7,29.95,NW,307,13.5,16.5,56,33.69,,---,0.00,VWS V14.01,2013-01-02 07:11:00,
2013-01-02 02:16:00,26.0,12.4,29.95,NNE,13,20.0,20.0,56,0.00,,---,0.00,VWS V14.01,2013-01-02 07:16:00,
2013-01-02 02:21:00,26.0,12.4,29.95,NNE,28,16.1,16.1,56,0.00,,---,0.00,VWS V14.01,2013-01-02 07:21:00,
2013-01-02 02:26:00,26.5,12.9,29.96,NNW,328,12.7,12.7,56,0.00,,---,0.00,VWS V14.01,2013-01-02 07:26:00,
2013-01-02 02:31:00,25.9,12.6,29.96,North,359,0.7,0.7,56,0.00,,---,0.00,VWS V14.01,2013-01-02 07:31:00,
2013-01-02 02:36:00,25.9,12.7,29.96,North,359,0.0,0.7,57,0.00,,---,0.00,VWS V14.01,2013-01-02 07:36:00,
2013-01-02 02:41:00,25.4,12.3,29.97,North,359,8.3,11.1,57,0.00,,---,0.00,VWS V14.01,2013-01-02 07:41:00,
2013-01-02 02:46:00,25.7,12.7,29.97,NNW,329,10.9,10.9,57,0.00,,---,0.00,VWS V14.01,2013-01-02 07:46:00,
2013-01-02 02:51:00,25.9,13.1,29.97,North,359,0.9,9.7,58,0.00,,---,0.00,VWS V14.01,2013-01-02 07:51:00,
2013-01-02 02:56:00,25.8,12.8,29.96,NNE,15,10.1,10.1,57,0.00,,---,0.00,VWS V14.01,2013-01-02 07:56:00,
2013-01-02 03:01:00,26.1,13.0,29.95,North,359,1.7,1.7,57,0.00,,---,0.00,VWS V14.01,2013-01-02 08:01:00,
2013-01-02 03:06:00,25.4,12.6,29.96,NNW,328,10.5,14.0,58,0.00,,---,0.00,VWS V14.01,2013-01-02 08:06:00,
2013-01-02 03:11:00,25.7,12.8,29.96,North,359,12.4,14.5,58,0.00,,---,0.00,VWS V14.01,2013-01-02 08:11:00,
2013-01-02 03:16:00,25.3,12.8,29.96,North,359,0.0,8.5,58,0.00,,---,0.00,VWS V14.01,2013-01-02 08:16:00,
2013-01-02 03:21:00,25.6,12.9,29.96,North,359,12.2,13.9,58,0.00,,---,0.00,VWS V14.01,2013-01-02 08:21:00,
2013-01-02 03:26:00,25.4,12.7,29.95,North,359,0.9,15.0,58,0.00,,---,0.00,VWS V14.01,2013-01-02 08:26:00,
2013-01-02 03:31:00,25.0,12.5,29.95,North,359,1.2,9.4,58,0.00,,---,0.00,VWS V14.01,2013-01-02 08:31:00,
2013-01-02 03:36:00,25.2,12.7,29.96,North,359,0.0,9.4,58,0.00,,---,0.00,VWS V14.01,2013-01-02 08:36:00,
2013-01-02 03:41:00,25.1,12.6,29.96,North,359,2.3,8.7,59,0.00,,---,0.00,VWS V14.01,2013-01-02 08:41:00,
2013-01-02 03:46:00,25.2,13.0,29.96,North,359,0.0,10.3,59,0.00,,---,0.00,VWS V14.01,2013-01-02 08:46:00,
2013-01-02 03:51:00,25.2,12.9,29.96,North,359,0.0,9.8,59,0.00,,---,0.00,VWS V14.01,2013-01-02 08:51:00,
2013-01-02 03:56:00,24.9,12.7,29.96,North,10,12.3,12.3,59,0.00,,---,0.00,VWS V14.01,2013-01-02 08:56:00,
2013-01-02 04:00:00,25.1,13.2,29.96,North,359,0.6,12.4,60,0.00,,---,0.00,VWS V14.01,2013-01-02 09:00:00,
2013-01-02 04:01:00,25.0,13.4,29.96,NE,35,9.8,9.8,61,0.00,,---,0.00,VWS V14.01,2013-01-02 09:01:00,
2013-01-02 04:06:00,25.5,13.8,29.95,North,352,8.0,9.3,61,0.00,,---,0.00,VWS V14.01,2013-01-02 09:06:00,
2013-01-02 04:11:00,24.9,13.0,29.96,NNW,339,13.2,13.3,60,0.00,,---,0.00,VWS V14.01,2013-01-02 09:11:00,
2013-01-02 04:15:00,26.3,15.9,30.10,SW,226,0.0,0.0,64,0.00,,---,0.00,VWS V14.01,2013-01-02 09:15:00,
2013-01-02 04:16:00,24.4,13.1,29.96,North,359,0.2,5.6,62,0.00,,---,0.00,VWS V14.01,2013-01-02 09:16:00,
2013-01-02 04:21:00,24.8,13.3,29.96,North,0,6.2,9.4,61,0.00,,---,0.00,VWS V14.01,2013-01-02 09:21:00,
2013-01-02 04:25:00,24.7,13.6,29.96,North,359,8.5,8.5,62,0.00,,---,0.00,VWS V14.01,2013-01-02 09:25:00,
2013-01-02 04:30:00,25.3,13.7,29.96,NE,37,9.8,9.8,61,0.00,,---,0.00,VWS V14.01,2013-01-02 09:30:00,
2013-01-02 04:35:00,24.8,12.9,29.96,ENE,69,7.4,10.7,60,0.00,,---,0.00,VWS V14.01,2013-01-02 09:35:00,
2013-01-02 04:40:00,24.9,13.7,29.96,ESE,114,7.0,8.3,62,0.00,,---,0.00,VWS V14.01,2013-01-02 09:40:00,
2013-01-02 04:45:00,24.0,12.7,29.96,NNE,20,8.9,8.9,62,0.00,,---,0.00,VWS V14.01,2013-01-02 09:45:00,
2013-01-02 04:50:00,24.3,13.0,29.96,North,359,1.2,9.2,62,0.00,,---,0.00,VWS V14.01,2013-01-02 09:50:00,
2013-01-02 04:55:00,24.3,13.0,29.96,North,359,4.1,12.0,62,0.00,,---,0.00,VWS V14.01,2013-01-02 09:55:00,
2013-01-02 05:00:00,24.5,13.5,29.96,North,359,2.2,9.8,62,0.00,,---,0.00,VWS V14.01,2013-01-02 10:00:00,
2013-01-02 05:05:00,24.5,12.9,29.96,North,3,11.2,14.6,61,0.00,,---,0.00,VWS V14.01,2013-01-02 10:05:00,
2013-01-02 05:10:00,24.5,12.9,29.97,NE,52,13.9,14.6,61,0.01,,---,0.00,VWS V14.01,2013-01-02 10:10:00,
2013-01-02 05:15:00,23.9,11.9,29.97,North,7,15.0,15.2,60,0.00,,---,0.00,VWS V14.01,2013-01-02 10:15:00,
2013-01-02 05:20:00,24.3,12.6,29.97,North,10,9.3,11.8,60,0.00,,---,0.00,VWS V14.01,2013-01-02 10:20:00,
2013-01-02 05:25:00,24.0,12.5,29.97,North,1,8.0,9.9,61,0.00,,---,0.00,VWS V14.01,2013-01-02 10:25:00,
2013-01-02 05:30:00,23.7,11.8,29.97,NNW,346,8.4,11.1,60,0.00,,---,0.00,VWS V14.01,2013-01-02 10:30:00,
2013-01-02 05:35:00,23.8,11.6,29.97,NNE,15,13.9,15.1,59,0.00,,---,0.00,VWS V14.01,2013-01-02 10:35:00,
2013-01-02 05:40:00,23.7,11.5,29.97,North,359,3.6,3.6,59,0.00,,---,0.00,VWS V14.01,2013-01-02 10:40:00,
2013-01-02 05:45:00,24.1,12.1,29.97,North,359,7.3,10.5,60,0.00,,---,0.00,VWS V14.01,2013-01-02 10:45:00,
2013-01-02 05:50:00,23.4,11.5,29.97,North,359,8.5,8.9,60,0.00,,---,0.00,VWS V14.01,2013-01-02 10:50:00,
2013-01-02 05:55:00,23.8,11.6,29.98,North,359,0.2,2.1,59,0.00,,---,0.00,VWS V14.01,2013-01-02 10:55:00,
2013-01-02 06:00:00,24.4,12.0,29.97,NNE,13,9.6,10.6,59,0.00,,---,0.00,VWS V14.01,2013-01-02 11:00:00,
2013-01-02 06:05:00,23.9,11.4,29.98,NNE,13,8.8,9.7,58,0.00,,---,0.00,VWS V14.01,2013-01-02 11:05:00,
2013-01-02 06:08:00,24.0,11.6,29.98,NNE,22,7.7,9.1,59,0.00,,---,0.00,VWS V14.01,2013-01-02 11:08:00,
2013-01-02 06:10:00,23.7,11.6,29.98,North,0,10.6,11.0,59,0.00,,---,0.00,VWS V14.01,2013-01-02 11:10:00,
2013-01-02 06:15:00,24.1,12.1,29.98,North,353,8.1,8.4,60,72.79,,---,0.00,VWS V14.01,2013-01-02 11:15:00,
2013-01-02 06:20:00,23.9,11.6,29.97,North,7,7.9,10.7,59,0.00,,---,0.00,VWS V14.01,2013-01-02 11:20:00,
2013-01-02 06:25:00,23.4,11.4,29.98,North,3,5.7,6.8,60,0.00,,---,0.00,VWS V14.01,2013-01-02 11:25:00,
2013-01-02 06:30:00,24.2,11.9,29.98,North,0,5.2,7.6,59,0.00,,---,0.00,VWS V14.01,2013-01-02 11:30:00,
2013-01-02 06:35:00,23.1,11.5,29.98,North,350,4.9,5.1,61,0.00,,---,0.00,VWS V14.01,2013-01-02 11:35:00,
2013-01-02 06:40:00,23.5,11.3,29.97,NNW,346,6.8,7.0,59,72.63,,---,0.00,VWS V14.01,2013-01-02 11:40:00,
2013-01-02 06:45:00,23.7,12.2,29.97,ENE,62,6.8,6.8,61,0.00,,---,0.00,VWS V14.01,2013-01-02 11:45:00,
2013-01-02 06:50:00,23.7,11.9,29.97,NNE,25,5.6,6.0,60,0.00,,---,0.00,VWS V14.01,2013-01-02 11:50:00,
2013-01-02 06:55:00,24.2,12.8,29.97,North,359,2.1,4.7,61,0.00,,---,0.00,VWS V14.01,2013-01-02 11:55:00,
2013-01-02 07:00:00,23.7,12.1,29.97,SE,135,4.2,7.0,60,0.00,,---,0.00,VWS V14.01,2013-01-02 12:00:00,
2013-01-02 07:05:00,23.4,11.8,29.98,North,359,4.2,9.8,60,0.00,,---,0.00,VWS V14.01,2013-01-02 12:05:00,
2013-01-02 07:10:00,23.6,11.9,29.98,North,359,7.4,8.3,60,0.00,,---,0.00,VWS V14.01,2013-01-02 12:10:00,
2013-01-02 07:15:00,24.0,12.4,29.98,North,359,2.9,7.5,61,0.00,,---,0.00,VWS V14.01,2013-01-02 12:15:00,
2013-01-02 07:20:00,23.6,12.3,29.98,NNE,30,3.1,3.7,61,0.00,,---,0.00,VWS V14.01,2013-01-02 12:20:00,
2013-01-02 07:25:00,23.4,11.9,29.99,NE,56,3.8,5.5,61,0.00,,---,0.00,VWS V14.01,2013-01-02 12:25:00,
2013-01-02 07:30:00,23.5,12.3,29.99,North,357,5.0,5.0,62,0.00,,---,0.00,VWS V14.01,2013-01-02 12:30:00,
2013-01-02 07:35:00,23.8,12.3,29.99,NNW,330,3.9,5.5,61,0.00,,---,0.00,VWS V14.01,2013-01-02 12:35:00,
2013-01-02 07:40:00,23.7,12.3,29.99,NW,323,0.8,1.8,61,0.00,,---,0.00,VWS V14.01,2013-01-02 12:40:00,
2013-01-02 07:45:00,24.1,12.5,29.99,NNE,13,0.0,0.0,61,0.00,,---,0.00,VWS V14.01,2013-01-02 12:45:00,
2013-01-02 07:50:00,23.6,12.1,30.00,NNE,13,0.0,0.0,61,0.00,,---,0.00,VWS V14.01,2013-01-02 12:50:00,
2013-01-02 07:55:00,24.0,12.6,30.00,NNE,17,2.7,3.0,61,0.00,,---,0.00,VWS V14.01,2013-01-02 12:55:00,
2013-01-02 08:00:00,24.2,12.8,30.00,North,359,0.0,0.0,61,0.00,,---,0.00,VWS V14.01,2013-01-02 13:00:00,
2013-01-02 08:05:00,24.1,12.7,30.00,North,359,2.1,2.7,61,0.00,,---,0.00,VWS V14.01,2013-01-02 13:05:00,
2013-01-02 08:10:00,23.6,12.4,30.01,North,356,0.0,0.0,62,0.00,,---,0.00,VWS V14.01,2013-01-02 13:10:00,
2013-01-02 08:15:00,24.3,13.0,30.00,NNW,332,3.7,4.7,62,0.00,,---,0.00,VWS V14.01,2013-01-02 13:15:00,
2013-01-02 08:20:00,24.0,12.8,30.01,NNW,333,1.9,3.2,62,0.00,,---,0.00,VWS V14.01,2013-01-02 13:20:00,
2013-01-02 08:25:00,23.3,12.4,30.01,North,0,5.0,5.8,62,0.00,,---,0.00,VWS V14.01,2013-01-02 13:25:00,
2013-01-02 08:30:00,23.8,12.8,30.01,NW,311,6.3,8.8,62,0.00,,---,0.00,VWS V14.01,2013-01-02 13:30:00,
2013-01-02 08:35:00,24.1,13.0,30.02,NW,319,3.5,4.0,62,0.00,,---,0.00,VWS V14.01,2013-01-02 13:35:00,
2013-01-02 08:40:00,24.4,13.0,30.01,North,0,7.1,7.8,61,0.00,,---,0.00,VWS V14.01,2013-01-02 13:40:00,
2013-01-02 08:45:00,23.8,12.0,30.02,North,359,8.9,8.9,60,0.00,,---,0.00,VWS V14.01,2013-01-02 13:45:00,
2013-01-02 08:50:00,24.4,12.7,30.02,NNW,340,7.8,8.1,60,0.00,,---,0.00,VWS V14.01,2013-01-02 13:50:00,
2013-01-02 08:55:00,23.9,12.1,30.02,NNW,329,5.8,5.9,60,0.00,,---,0.00,VWS V14.01,2013-01-02 13:55:00,
2013-01-02 09:00:00,24.4,12.2,30.02,NW,318,11.9,12.1,59,0.00,,---,0.00,VWS V14.01,2013-01-02 14:00:00,
2013-01-02 09:05:00,24.4,12.2,30.02,NNW,333,8.0,10.1,59,0.00,,---,0.00,VWS V14.01,2013-01-02 14:05:00,
2013-01-02 09:10:00,24.3,12.2,30.02,NW,321,7.1,7.1,60,72.47,,---,0.00,VWS V14.01,2013-01-02 14:10:00,
2013-01-02 09:15:00,24.5,12.5,30.02,NW,312,3.0,3.2,60,0.00,,---,0.00,VWS V14.01,2013-01-02 14:15:00,
2013-01-02 09:20:00,24.7,13.1,30.02,NNW,328,4.7,5.3,61,0.00,,---,0.00,VWS V14.01,2013-01-02 14:20:00,
2013-01-02 09:25:00,25.2,13.2,30.03,WNW,288,5.4,9.7,60,0.00,,---,0.00,VWS V14.01,2013-01-02 14:25:00,
2013-01-02 09:30:00,24.2,12.1,30.03,NW,323,8.5,9.9,59,0.00,,---,0.00,VWS V14.01,2013-01-02 14:30:00,
2013-01-02 09:35:00,25.0,13.1,30.02,NNW,332,6.6,8.8,60,72.95,,---,0.00,VWS V14.01,2013-01-02 14:35:00,
2013-01-02 09:40:00,24.2,12.1,30.03,NNW,332,6.3,7.6,60,0.00,,---,0.00,VWS V14.01,2013-01-02 14:40:00,
2013-01-02 09:45:00,25.2,12.6,30.03,NW,325,11.8,11.8,58,0.00,,---,0.00,VWS V14.01,2013-01-02 14:45:00,
2013-01-02 09:50:00,25.7,13.1,30.03,WNW,291,5.9,9.6,58,0.00,,---,0.00,VWS V14.01,2013-01-02 14:50:00,
2013-01-02 09:55:00,25.9,13.3,30.04,NNW,335,4.4,7.0,58,0.00,,---,0.00,VWS V14.01,2013-01-02 14:55:00,
2013-01-02 10:00:00,26.1,13.0,30.03,NNW,333,9.4,12.9,57,74.23,,---,0.00,VWS V14.01,2013-01-02 15:00:00,
2013-01-02 10:05:00,25.9,12.9,30.03,NNW,330,11.4,13.0,57,0.00,,---,0.00,VWS V14.01,2013-01-02 15:05:00,
2013-01-02 10:10:00,25.6,12.5,30.04,NW,314,10.6,11.7,57,0.00,,---,0.00,VWS V14.01,2013-01-02 15:10:00,
2013-01-02 10:15:00,25.9,12.8,30.04,NW,305,12.8,14.3,57,0.00,,---,0.00,VWS V14.01,2013-01-02 15:15:00,
2013-01-02 10:20:00,25.4,12.1,30.04,NW,322,11.2,12.4,56,0.00,,---,0.00,VWS V14.01,2013-01-02 15:20:00,
2013-01-02 10:25:00,25.9,12.5,30.04,NNW,336,11.4,13.7,56,0.00,,---,0.00,VWS V14.01,2013-01-02 15:25:00,
2013-01-02 10:30:00,27.0,13.8,30.04,NW,319,8.9,9.8,57,0.00,,---,0.00,VWS V14.01,2013-01-02 15:30:00,
2013-01-02 10:35:00,26.0,12.4,30.03,NNW,332,13.2,13.8,56,74.87,,---,0.00,VWS V14.01,2013-01-02 15:35:00,
2013-01-02 10:40:00,26.8,13.8,30.04,NNW,343,8.6,11.7,58,0.00,,---,0.00,VWS V14.01,2013-01-02 15:40:00,
2013-01-02 10:45:00,27.1,13.6,30.03,NNW,333,12.4,16.7,56,0.00,,---,0.00,VWS V14.01,2013-01-02 15:45:00,
2013-01-02 10:50:00,26.5,13.0,30.02,NW,321,10.9,12.0,56,0.00,,---,0.00,VWS V14.01,2013-01-02 15:50:00,
2013-01-02 10:55:00,27.0,13.8,30.03,WNW,285,6.6,6.9,57,0.00,,---,0.00,VWS V14.01,2013-01-02 15:55:00,
2013-01-02 11:00:00,27.2,13.3,30.02,NNW,328,11.2,13.6,55,0.00,,---,0.00,VWS V14.01,2013-01-02 16:00:00,
2013-01-02 11:05:00,27.3,13.3,30.02,WNW,300,9.7,13.1,55,0.00,,---,0.00,VWS V14.01,2013-01-02 16:05:00,
2013-01-02 11:10:00,27.8,13.9,30.02,NW,316,7.5,10.7,55,75.67,,---,0.00,VWS V14.01,2013-01-02 16:10:00,
2013-01-02 11:15:00,27.6,13.5,30.02,NW,319,6.5,12.7,55,0.00,,---,0.00,VWS V14.01,2013-01-02 16:15:00,
2013-01-02 11:20:00,28.1,14.1,30.02,NW,319,9.3,10.3,55,0.00,,---,0.00,VWS V14.01,2013-01-02 16:20:00,
2013-01-02 11:25:00,27.9,13.8,30.01,NW,316,12.2,12.9,55,0.00,,---,0.00,VWS V14.01,2013-01-02 16:25:00,
2013-01-02 11:30:00,28.1,14.1,30.01,NW,323,7.6,10.4,55,0.00,,---,0.00,VWS V14.01,2013-01-02 16:30:00,
2013-01-02 11:35:00,27.9,14.3,30.00,NW,322,14.2,14.5,56,74.71,,---,0.00,VWS V14.01,2013-01-02 16:35:00,
2013-01-02 11:40:00,28.1,14.2,30.00,NNW,335,10.2,12.5,55,0.00,,---,0.00,VWS V14.01,2013-01-02 16:40:00,
2013-01-02 11:45:00,28.0,13.0,30.00,NW,322,14.5,20.7,53,0.00,,---,0.00,VWS V14.01,2013-01-02 16:45:00,
2013-01-02 11:50:00,28.8,14.4,30.00,NNW,330,12.9,15.4,54,0.00,,---,0.00,VWS V14.01,2013-01-02 16:50:00,
2013-01-02 11:55:00,28.4,13.6,30.00,NNW,340,15.1,21.1,53,0.00,,---,0.00,VWS V14.01,2013-01-02 16:55:00,
2013-01-02 12:00:00,28.5,13.8,29.99,North,10,22.6,22.6,54,74.87,,---,0.00,VWS V14.01,2013-01-02 17:00:00,
2013-01-02 12:05:00,28.3,13.7,29.99,NNW,346,16.6,23.5,54,0.00,,---,0.00,VWS V14.01,2013-01-02 17:05:00,
2013-01-02 12:10:00,28.4,13.7,29.98,NNW,328,10.6,15.4,54,0.00,,---,0.00,VWS V14.01,2013-01-02 17:10:00,
2013-01-02 12:15:00,28.2,13.8,29.99,NW,325,18.9,20.2,54,0.00,,---,0.00,VWS V14.01,2013-01-02 17:15:00,
2013-01-02 12:19:00,28.5,13.9,29.98,NW,323,14.4,19.1,54,0.00,,---,0.00,VWS V14.01,2013-01-02 17:19:00,
2013-01-02 12:25:00,28.5,13.8,29.99,NNE,18,20.4,20.9,54,74.87,,---,0.00,VWS V14.01,2013-01-02 17:25:00,
2013-01-02 12:30:00,28.4,14.2,29.98,North,359,0.8,14.8,55,0.00,,---,0.00,VWS V14.01,2013-01-02 17:30:00,
2013-01-02 12:35:00,29.2,14.6,29.98,NNW,339,11.5,19.0,54,0.00,,---,0.00,VWS V14.01,2013-01-02 17:35:00,
2013-01-02 12:39:00,29.1,14.6,29.98,NNW,328,18.3,21.0,54,0.00,,---,0.00,VWS V14.01,2013-01-02 17:39:00,
2013-01-02 12:44:00,29.5,15.2,29.98,East,98,13.7,18.3,55,0.00,,---,0.00,VWS V14.01,2013-01-02 17:44:00,
2013-01-02 12:49:00,30.3,16.0,29.98,WNW,300,7.9,12.1,55,0.00,,---,0.00,VWS V14.01,2013-01-02 17:49:00,
2013-01-02 12:54:00,29.9,15.2,29.98,North,350,8.6,9.7,54,0.00,,---,0.00,VWS V14.01,2013-01-02 17:54:00,
2013-01-02 12:59:00,30.1,15.2,29.97,NNW,332,17.1,19.3,53,0.00,,---,0.00,VWS V14.01,2013-01-02 17:59:00,
2013-01-02 13:04:00,29.8,15.1,29.98,NW,318,10.3,12.9,54,0.00,,---,0.00,VWS V14.01,2013-01-02 18:04:00,
2013-01-02 13:09:00,29.6,14.7,29.98,NNW,335,14.2,17.8,53,0.00,,---,0.00,VWS V14.01,2013-01-02 18:09:00,
2013-01-02 13:14:00,29.6,15.3,29.98,NNW,329,8.0,15.3,55,0.00,,---,0.00,VWS V14.01,2013-01-02 18:14:00,
2013-01-02 13:19:00,29.4,14.9,29.98,NW,309,10.8,16.1,54,0.00,,---,0.00,VWS V14.01,2013-01-02 18:19:00,
2013-01-02 13:24:00,29.5,14.6,29.98,NW,312,12.7,15.7,53,0.00,,---,0.00,VWS V14.01,2013-01-02 18:24:00,
2013-01-02 13:29:00,30.4,15.5,29.97,NW,307,10.0,14.9,53,0.00,,---,0.00,VWS V14.01,2013-01-02 18:29:00,
2013-01-02 13:34:00,30.8,15.2,29.97,NW,323,9.6,12.4,52,0.00,,---,0.00,VWS V14.01,2013-01-02 18:34:00,
2013-01-02 13:39:00,31.0,15.3,29.98,NNW,333,18.3,21.3,52,0.00,,---,0.00,VWS V14.01,2013-01-02 18:39:00,
2013-01-02 13:44:00,30.7,15.2,29.98,NE,42,11.2,15.0,52,0.00,,---,0.00,VWS V14.01,2013-01-02 18:44:00,
2013-01-02 13:49:00,30.8,15.7,29.98,WNW,283,7.9,16.2,53,0.00,,---,0.00,VWS V14.01,2013-01-02 18:49:00,
2013-01-02 13:54:00,30.8,15.5,29.98,NNW,336,10.3,17.5,53,0.00,,---,0.00,VWS V14.01,2013-01-02 18:54:00,
2013-01-02 13:59:00,30.5,14.9,29.98,North,3,16.7,21.1,52,0.00,,---,0.00,VWS V14.01,2013-01-02 18:59:00,
2013-01-02 14:04:00,30.3,15.1,29.99,North,359,5.9,13.0,53,0.00,,---,0.00,VWS V14.01,2013-01-02 19:04:00,
2013-01-02 14:09:00,30.3,15.1,29.99,NNW,345,15.2,19.8,53,0.00,,---,0.00,VWS V14.01,2013-01-02 19:09:00,
2013-01-02 14:14:00,30.8,15.5,29.99,NNE,13,17.5,17.5,52,0.00,,---,0.00,VWS V14.01,2013-01-02 19:14:00,
2013-01-02 14:19:00,30.9,15.7,29.99,North,359,6.4,13.5,53,0.00,,---,0.00,VWS V14.01,2013-01-02 19:19:00,
2013-01-02 14:24:00,31.1,15.9,29.99,NNW,342,15.0,15.0,53,0.00,,---,0.00,VWS V14.01,2013-01-02 19:24:00,
2013-01-02 14:29:00,31.5,16.1,29.99,North,359,11.6,14.0,52,0.00,,---,0.00,VWS V14.01,2013-01-02 19:29:00,
2013-01-02 14:34:00,31.2,15.9,30.00,NNW,338,11.7,13.2,53,0.00,,---,0.00,VWS V14.01,2013-01-02 19:34:00,
2013-01-02 14:39:00,31.1,15.9,29.99,NNE,18,11.7,13.6,53,0.00,,---,0.00,VWS V14.01,2013-01-02 19:39:00,
2013-01-02 14:44:00,31.2,15.6,30.00,NNE,20,13.6,13.6,52,0.00,,---,0.00,VWS V14.01,2013-01-02 19:44:00,
2013-01-02 14:49:00,31.1,15.6,30.00,North,359,4.3,14.0,52,0.00,,---,0.00,VWS V14.01,2013-01-02 19:49:00,
2013-01-02 14:54:00,30.7,15.4,30.00,North,359,4.2,15.7,52,0.00,,---,0.00,VWS V14.01,2013-01-02 19:54:00,
2013-01-02 14:59:00,31.6,16.0,30.00,North,359,0.0,0.0,52,0.00,,---,0.00,VWS V14.01,2013-01-02 19:59:00,
2013-01-02 15:04:00,30.8,15.2,30.00,North,359,0.2,14.2,52,0.00,,---,0.00,VWS V14.01,2013-01-02 20:04:00,
2013-01-02 15:09:00,30.8,15.3,30.00,WNW,288,11.5,12.9,52,0.00,,---,0.00,VWS V14.01,2013-01-02 20:09:00,
2013-01-02 15:14:00,31.0,15.6,30.00,North,359,1.9,14.2,52,0.00,,---,0.00,VWS V14.01,2013-01-02 20:14:00,
2013-01-02 15:19:00,31.3,15.9,30.01,NNE,14,13.0,15.9,52,0.00,,---,0.00,VWS V14.01,2013-01-02 20:19:00,
2013-01-02 15:24:00,30.8,15.5,30.00,NNW,333,9.2,9.2,52,0.00,,---,0.00,VWS V14.01,2013-01-02 20:24:00,
2013-01-02 15:29:00,31.5,15.7,30.00,NW,316,6.9,9.6,52,0.00,,---,0.00,VWS V14.01,2013-01-02 20:29:00,
2013-01-02 15:34:00,31.3,15.2,30.01,North,359,11.4,15.4,51,0.00,,---,0.00,VWS V14.01,2013-01-02 20:34:00,
2013-01-02 15:39:00,31.5,15.4,30.01,North,359,1.1,1.1,51,0.00,,---,0.00,VWS V14.01,2013-01-02 20:39:00,
2013-01-02 15:44:00,31.1,15.0,30.01,NNE,14,13.7,13.7,51,0.00,,---,0.00,VWS V14.01,2013-01-02 20:44:00,
2013-01-02 15:49:00,31.3,15.2,30.01,North,359,0.8,11.9,51,0.00,,---,0.00,VWS V14.01,2013-01-02 20:49:00,
2013-01-02 15:54:00,31.1,15.1,30.02,North,359,1.1,16.9,51,0.00,,---,0.00,VWS V14.01,2013-01-02 20:54:00,
2013-01-02 15:59:00,30.9,15.2,30.02,North,359,9.7,9.7,52,0.00,,---,0.00,VWS V14.01,2013-01-02 20:59:00,
2013-01-02 16:04:00,31.3,15.2,30.02,NNW,328,12.2,16.1,51,0.00,,---,0.00,VWS V14.01,2013-01-02 21:04:00,
2013-01-02 16:09:00,31.0,15.2,30.02,NNW,343,10.6,10.8,51,0.00,,---,0.00,VWS V14.01,2013-01-02 21:09:00,
2013-01-02 16:14:00,31.1,15.2,30.02,WNW,292,14.0,16.0,51,0.00,,---,0.00,VWS V14.01,2013-01-02 21:14:00,
2013-01-02 16:19:00,31.0,15.1,30.02,NNW,329,13.0,13.0,51,0.00,,---,0.00,VWS V14.01,2013-01-02 21:19:00,
2013-01-02 16:24:00,30.6,14.9,30.02,WNW,294,6.5,8.5,52,0.00,,---,0.00,VWS V14.01,2013-01-02 21:24:00,
2013-01-02 16:29:00,31.0,15.3,30.02,NW,309,10.6,11.7,52,0.00,,---,0.00,VWS V14.01,2013-01-02 21:29:00,
2013-01-02 16:34:00,31.0,15.4,30.03,NW,321,6.3,6.3,52,0.00,,---,0.00,VWS V14.01,2013-01-02 21:34:00,
2013-01-02 16:39:00,30.8,15.4,30.03,WNW,290,8.7,9.9,52,0.00,,---,0.00,VWS V14.01,2013-01-02 21:39:00,
2013-01-02 16:44:00,30.8,15.5,30.03,NW,304,7.3,8.1,52,0.00,,---,0.00,VWS V14.01,2013-01-02 21:44:00,
2013-01-02 16:49:00,31.5,16.3,30.03,NW,318,7.8,9.2,53,0.00,,---,0.00,VWS V14.01,2013-01-02 21:49:00,
2013-01-02 16:54:00,31.1,16.0,30.04,NW,308,5.7,7.9,53,0.00,,---,0.00,VWS V14.01,2013-01-02 21:54:00,
2013-01-02 16:59:00,30.6,15.6,30.04,NW,322,5.6,5.6,53,0.00,,---,0.00,VWS V14.01,2013-01-02 21:59:00,
2013-01-02 17:04:00,30.2,15.4,30.04,WNW,298,7.6,9.1,54,0.00,,---,0.00,VWS V14.01,2013-01-02 22:04:00,
2013-01-02 17:09:00,31.0,16.2,30.05,NW,307,2.6,3.0,54,0.00,,---,0.00,VWS V14.01,2013-01-02 22:09:00,
2013-01-02 17:14:00,30.4,15.8,30.05,NNE,13,4.9,9.7,54,72.95,,---,0.00,VWS V14.01,2013-01-02 22:14:00,
2013-01-02 17:19:00,30.5,15.9,30.05,WNW,295,6.5,7.2,54,0.00,,---,0.00,VWS V14.01,2013-01-02 22:19:00,
2013-01-02 17:24:00,30.4,15.8,30.05,North,3,6.4,9.7,54,0.00,,---,0.00,VWS V14.01,2013-01-02 22:24:00,
2013-01-02 17:29:00,30.5,15.9,30.05,NNE,27,4.1,4.6,54,0.00,,---,0.00,VWS V14.01,2013-01-02 22:29:00,
2013-01-02 17:34:00,30.0,15.6,30.05,NNW,343,3.7,4.4,54,0.00,,---,0.00,VWS V14.01,2013-01-02 22:34:00,
2013-01-02 17:39:00,30.0,15.6,30.06,NNW,342,3.7,6.6,54,0.00,,---,0.00,VWS V14.01,2013-01-02 22:39:00,
2013-01-02 17:44:00,30.1,15.8,30.06,NNW,333,6.6,7.5,55,0.00,,---,0.00,VWS V14.01,2013-01-02 22:44:00,
2013-01-02 17:49:00,29.9,15.7,30.06,NW,309,5.7,6.2,55,0.00,,---,0.00,VWS V14.01,2013-01-02 22:49:00,
2013-01-02 17:54:00,30.5,16.3,30.06,WNW,301,3.3,6.3,55,0.00,,---,0.00,VWS V14.01,2013-01-02 22:54:00,
2013-01-02 17:59:00,30.2,16.2,30.07,NNW,328,1.9,4.2,56,0.00,,---,0.00,VWS V14.01,2013-01-02 22:59:00,
2013-01-02 18:04:00,29.4,15.6,30.07,NW,312,0.0,7.5,56,0.00,,---,0.00,VWS V14.01,2013-01-02 23:04:00,
2013-01-02 18:09:00,29.7,16.0,30.07,NW,307,3.4,7.5,56,0.00,,---,0.00,VWS V14.01,2013-01-02 23:09:00,
2013-01-02 18:14:00,29.9,16.2,30.07,NW,307,4.6,7.5,56,0.00,,---,0.00,VWS V14.01,2013-01-02 23:14:00,
2013-01-02 18:19:00,29.7,16.2,30.07,West,276,4.3,7.5,57,73.11,,---,0.00,VWS V14.01,2013-01-02 23:19:00,
2013-01-02 18:24:00,29.3,15.9,30.08,NW,311,3.9,7.5,57,0.00,,---,0.00,VWS V14.01,2013-01-02 23:24:00,
2013-01-02 18:29:00,29.7,16.5,30.08,North,357,3.7,7.5,57,0.00,,---,0.00,VWS V14.01,2013-01-02 23:29:00,
2013-01-02 18:34:00,29.3,16.2,30.08,NW,305,3.4,7.5,58,0.00,,---,0.00,VWS V14.01,2013-01-02 23:34:00,
2013-01-02 18:39:00,29.7,16.6,30.08,WNW,300,1.1,7.5,58,0.00,,---,0.00,VWS V14.01,2013-01-02 23:39:00,
2013-01-02 18:44:00,29.3,16.3,30.08,NW,321,1.4,8.3,58,0.00,,---,0.00,VWS V14.01,2013-01-02 23:44:00,
2013-01-02 18:49:00,29.0,16.0,30.08,West,276,2.1,8.3,58,73.11,,---,0.00,VWS V14.01,2013-01-02 23:49:00,
2013-01-02 18:54:00,28.9,16.0,30.08,North,11,0.0,8.3,58,0.00,,---,0.00,VWS V14.01,2013-01-02 23:54:00,
2013-01-02 18:58:00,29.0,16.2,30.08,West,270,2.9,8.3,58,0.00,,---,0.00,VWS V14.01,2013-01-02 23:58:00,
2013-01-02 19:03:00,29.2,16.5,30.08,North,359,3.7,5.0,59,0.00,,---,0.00,VWS V14.01,2013-01-03 00:03:00,
2013-01-02 19:08:00,28.8,16.2,30.08,WNW,297,3.6,3.6,59,0.00,,---,0.00,VWS V14.01,2013-01-03 00:08:00,
2013-01-02 19:13:00,28.8,16.4,30.08,North,11,4.0,4.3,59,0.00,,---,0.00,VWS V14.01,2013-01-03 00:13:00,
2013-01-02 19:18:00,29.0,16.6,30.08,WNW,288,2.7,2.9,59,0.00,,---,0.00,VWS V14.01,2013-01-03 00:18:00,
2013-01-02 19:23:00,28.8,16.4,30.09,NW,316,2.7,4.0,59,72.79,,---,0.00,VWS V14.01,2013-01-03 00:23:00,
2013-01-02 19:28:00,28.6,16.3,30.09,WSW,245,0.0,1.9,60,0.00,,---,0.00,VWS V14.01,2013-01-03 00:28:00,
2013-01-02 19:34:00,28.3,16.1,30.09,West,266,3.0,3.7,60,72.47,,---,0.00,VWS V14.01,2013-01-03 00:34:00,
2013-01-02 19:39:00,27.9,15.9,30.09,West,276,2.1,3.2,60,0.00,,---,0.00,VWS V14.01,2013-01-03 00:39:00,
2013-01-02 19:44:00,28.2,16.3,30.08,WNW,288,0.0,0.0,61,0.00,,---,0.00,VWS V14.01,2013-01-03 00:44:00,
2013-01-02 19:49:00,27.6,15.9,30.08,WNW,288,0.0,0.0,61,0.00,,---,0.00,VWS V14.01,2013-01-03 00:49:00,
2013-01-02 19:54:00,27.8,16.2,30.09,WNW,288,0.0,0.0,61,0.00,,---,0.00,VWS V14.01,2013-01-03 00:54:00,
2013-01-02 19:59:00,27.9,16.3,30.09,WNW,288,0.0,0.0,61,0.00,,---,0.00,VWS V14.01,2013-01-03 00:59:00,
2013-01-02 20:04:00,28.0,16.6,30.09,WNW,288,0.0,0.0,62,0.00,,---,0.00,VWS V14.01,2013-01-03 01:04:00,
2013-01-02 20:09:00,27.8,16.4,30.08,West,273,1.2,2.9,62,0.00,,---,0.00,VWS V14.01,2013-01-03 01:09:00,
2013-01-02 20:14:00,27.5,16.1,30.09,West,276,2.2,3.2,62,0.00,,---,0.00,VWS V14.01,2013-01-03 01:14:00,
2013-01-02 20:19:00,27.9,16.4,30.08,West,264,2.5,4.0,62,0.00,,---,0.00,VWS V14.01,2013-01-03 01:19:00,
2013-01-02 20:24:00,26.9,15.5,30.08,WSW,256,0.0,4.0,62,0.00,,---,0.00,VWS V14.01,2013-01-03 01:24:00,
2013-01-02 20:29:00,27.3,16.0,30.09,WSW,256,0.0,4.0,62,0.00,,---,0.00,VWS V14.01,2013-01-03 01:29:00,
2013-01-02 20:34:00,26.9,15.8,30.09,WSW,256,0.0,0.0,62,0.00,,---,0.00,VWS V14.01,2013-01-03 01:34:00,
2013-01-02 20:38:00,27.3,16.3,30.09,WSW,256,0.0,0.0,63,0.00,,---,0.00,VWS V14.01,2013-01-03 01:38:00,
2013-01-02 20:43:00,27.2,16.3,30.09,WSW,256,0.0,0.0,63,0.00,,---,0.00,VWS V14.01,2013-01-03 01:43:00,
2013-01-02 20:48:00,26.8,15.9,30.10,West,273,2.9,2.9,63,0.00,,---,0.00,VWS V14.01,2013-01-03 01:48:00,
2013-01-02 20:53:00,27.3,16.4,30.10,WSW,239,2.9,2.9,63,0.00,,---,0.00,VWS V14.01,2013-01-03 01:53:00,
2013-01-02 20:58:00,26.9,16.1,30.10,West,271,1.1,3.2,63,0.00,,---,0.00,VWS V14.01,2013-01-03 01:58:00,
2013-01-02 21:03:00,27.0,16.2,30.10,WSW,243,1.3,2.5,63,0.00,,---,0.00,VWS V14.01,2013-01-03 02:03:00,
2013-01-02 21:04:00,26.7,16.3,30.10,SW,226,0.0,0.8,64,0.00,,---,0.00,VWS V14.01,2013-01-03 02:04:00,
2013-01-02 21:08:00,26.4,16.0,30.10,WNW,288,2.4,4.1,64,0.00,,---,0.00,VWS V14.01,2013-01-03 02:08:00,
2013-01-02 21:13:00,26.5,16.2,30.10,WNW,297,0.6,2.4,64,0.00,,---,0.00,VWS V14.01,2013-01-03 02:13:00,
2013-01-02 21:18:00,26.4,16.0,30.10,WSW,257,1.2,1.2,64,0.00,,---,0.00,VWS V14.01,2013-01-03 02:18:00,
2013-01-02 21:23:00,26.2,15.8,30.10,West,266,1.2,2.2,64,0.00,,---,0.00,VWS V14.01,2013-01-03 02:23:00,
2013-01-02 21:28:00,26.3,15.9,30.10,WNW,295,1.7,2.5,64,0.00,,---,0.00,VWS V14.01,2013-01-03 02:28:00,
2013-01-02 21:33:00,26.5,16.2,30.10,NW,314,2.6,2.9,65,0.00,,---,0.00,VWS V14.01,2013-01-03 02:33:00,
2013-01-02 21:38:00,26.7,16.4,30.10,NW,323,2.1,2.5,65,0.00,,---,0.00,VWS V14.01,2013-01-03 02:38:00,
2013-01-02 21:43:00,26.7,16.4,30.10,WNW,302,4.2,4.2,65,0.00,,---,0.00,VWS V14.01,2013-01-03 02:43:00,
2013-01-02 21:48:00,26.4,16.0,30.10,NW,318,4.9,4.9,64,0.00,,---,0.00,VWS V14.01,2013-01-03 02:48:00,
2013-01-02 21:53:00,27.0,16.5,30.10,NW,308,5.1,5.5,64,0.00,,---,0.00,VWS V14.01,2013-01-03 02:53:00,
2013-01-02 21:58:00,26.9,16.4,30.11,NW,314,3.5,4.8,64,0.00,,---,0.00,VWS V14.01,2013-01-03 02:58:00,
2013-01-02 22:03:00,26.6,16.0,30.11,WNW,292,3.9,4.5,64,0.00,,---,0.00,VWS V14.01,2013-01-03 03:03:00,
2013-01-02 22:08:00,27.0,16.3,30.11,NNW,329,4.8,4.8,64,0.00,,---,0.00,VWS V14.01,2013-01-03 03:08:00,
2013-01-02 22:13:00,27.3,16.5,30.10,NW,307,4.0,6.0,63,0.00,,---,0.00,VWS V14.01,2013-01-03 03:13:00,
2013-01-02 22:18:00,27.1,16.3,30.11,NW,309,3.7,3.9,63,0.00,,---,0.00,VWS V14.01,2013-01-03 03:18:00,
2013-01-02 22:23:00,27.5,16.6,30.11,WNW,285,5.5,8.1,63,0.00,,---,0.00,VWS V14.01,2013-01-03 03:23:00,
2013-01-02 22:28:00,27.0,16.1,30.11,WNW,300,5.9,6.0,63,0.00,,---,0.00,VWS V14.01,2013-01-03 03:28:00,
2013-01-02 22:34:00,26.9,16.0,30.11,NW,305,4.2,8.8,63,0.00,,---,0.00,VWS V14.01,2013-01-03 03:34:00,
2013-01-02 22:39:00,26.9,16.0,30.11,West,274,5.0,5.5,63,0.00,,---,0.00,VWS V14.01,2013-01-03 03:39:00,
2013-01-02 22:44:00,26.5,15.7,30.12,West,281,4.4,5.7,63,0.00,,---,0.00,VWS V14.01,2013-01-03 03:44:00,
2013-01-02 22:49:00,27.0,16.2,30.12,NW,319,3.4,5.0,63,0.00,,---,0.00,VWS V14.01,2013-01-03 03:49:00,
2013-01-02 22:54:00,27.1,16.2,30.12,NW,321,3.9,4.5,63,0.00,,---,0.00,VWS V14.01,2013-01-03 03:54:00,
2013-01-02 22:59:00,26.5,15.7,30.12,WNW,292,4.6,5.0,63,0.00,,---,0.00,VWS V14.01,2013-01-03 03:59:00,
2013-01-02 23:04:00,26.7,15.9,30.13,WNW,294,4.1,5.4,63,0.00,,---,0.00,VWS V14.01,2013-01-03 04:04:00,
2013-01-02 23:09:00,26.8,15.9,30.12,NW,316,7.0,8.0,63,0.00,,---,0.00,VWS V14.01,2013-01-03 04:09:00,
2013-01-02 23:14:00,26.9,15.9,30.13,WNW,297,7.3,8.5,63,0.00,,---,0.00,VWS V14.01,2013-01-03 04:14:00,
2013-01-02 23:19:00,27.2,16.2,30.13,NW,312,5.2,5.2,63,71.35,,---,0.00,VWS V14.01,2013-01-03 04:19:00,
2013-01-02 23:24:00,26.7,15.8,30.12,NW,305,4.0,4.0,63,0.00,,---,0.00,VWS V14.01,2013-01-03 04:24:00,
2013-01-02 23:29:00,27.0,16.0,30.13,NW,311,6.1,6.1,63,0.00,,---,0.00,VWS V14.01,2013-01-03 04:29:00,
2013-01-02 23:34:00,26.9,15.9,30.13,North,356,6.1,6.3,63,0.00,,---,0.00,VWS V14.01,2013-01-03 04:34:00,
2013-01-02 23:39:00,26.8,15.9,30.13,WNW,298,2.2,3.0,63,0.00,,---,0.00,VWS V14.01,2013-01-03 04:39:00,
2013-01-02 23:44:00,27.0,16.2,30.13,WNW,283,6.6,6.6,63,0.00,,---,0.00,VWS V14.01,2013-01-03 04:44:00,
2013-01-02 23:49:00,26.7,16.0,30.13,NW,309,5.8,6.3,63,38.23,,---,0.00,VWS V14.01,2013-01-03 04:49:00,
2013-01-02 23:54:00,26.5,15.8,30.13,NW,323,5.7,7.1,64,0.00,,---,0.00,VWS V14.01,2013-01-03 04:54:00,